Zim Mumbai — P3BA7 — position and weather

sailwx.info

Track history (hours):
 
Tides and Currents Weather Stations Pressure Air Temp Water Temp Dewpoint Dewpoint Depression Visibility Wind Speed Wind Dir Waves Ship Positions

Zim Mumbai

Last reported at 2017-Sep-22 02:00 UTC. Time now 2017-Sep-22 02:57 UTC.
Position S 33°50' E 018°25'.

Length 195.7 m; beam 32.3 m; draft 11.5 m.

Type: Cargo ship. MMSI: 212160000.

Date/timePositionNaut miles runAvg speedWind from/ knotsBaromVisibWave heightAir tempDewpointWater temp
2017-Sep-22 02:00S 33°50' E 018°25'0 0.3
2017-Sep-22 01:30S 33°50' E 018°25'0 0.0
2017-Sep-22 00:42S 33°50' E 018°25'0 0.0
2017-Sep-22 00:27S 33°50' E 018°25'0 0.1
2017-Sep-22 00:00S 33°50' E 018°25'0 0.0
2017-Sep-21 23:27S 33°50' E 018°25'0 0.0
2017-Sep-21 22:55S 33°50' E 018°25'0 0.0
2017-Sep-21 22:28S 33°50' E 018°25'0 0.0
2017-Sep-21 21:50S 33°50' E 018°25'0 0.0
2017-Sep-21 21:29S 33°50' E 018°25'0 0.0
2017-Sep-21 20:54S 33°50' E 018°25'0 0.0
2017-Sep-21 19:59S 33°50' E 018°25'0 0.0
2017-Sep-21 19:28S 33°50' E 018°25'0 0.1
2017-Sep-21 18:55S 33°50' E 018°25'0 0.0
2017-Sep-21 18:25S 33°50' E 018°25'0 0.1
2017-Sep-21 17:55S 33°50' E 018°25'0 0.0
2017-Sep-21 17:27S 33°50' E 018°25'0 0.0
2017-Sep-21 16:59S 33°50' E 018°25'0 0.0
2017-Sep-21 16:29S 33°50' E 018°25'0 0.0
2017-Sep-21 16:00S 33°50' E 018°25'0 0.0
2017-Sep-21 15:25S 33°50' E 018°25'0 0.1
2017-Sep-21 14:58S 33°50' E 018°25'0 0.0
2017-Sep-21 14:28S 33°50' E 018°25'0 0.0
2017-Sep-21 13:52S 33°50' E 018°25'0 0.0
2017-Sep-21 13:27S 33°50' E 018°25'0 0.0
2017-Sep-21 13:00S 33°50' E 018°25'0 0.0
2017-Sep-21 12:30S 33°50' E 018°25'0 0.1
2017-Sep-21 11:58S 33°50' E 018°25'0 0.0
2017-Sep-21 11:17S 33°50' E 018°25'0 0.0
2017-Sep-21 10:49S 33°50' E 018°25'0 0.1
2017-Sep-21 10:28S 33°50' E 018°25'0 0.1
2017-Sep-21 09:58S 33°50' E 018°25'0 0.1
2017-Sep-21 09:29S 33°50' E 018°25'0 0.1
2017-Sep-21 09:00S 33°50' E 018°25'0 0.2
2017-Sep-21 08:30S 33°50' E 018°25'2 4.6
2017-Sep-21 08:00S 33°52' E 018°24'613.0
2017-Sep-21 07:30S 33°52' E 018°17'1014.4
2017-Sep-21 06:50S 33°47' E 018°06'514.6
2017-Sep-21 06:30S 33°45' E 018°01'4 7.4
2017-Sep-21 05:54S 33°43' E 017°57'1 1.0
2017-Sep-21 05:05S 33°43' E 017°56'0 1.0
2017-Sep-21 04:55S 33°43' E 017°56'0 0.8
2017-Sep-21 04:26S 33°43' E 017°55'0 0.7
2017-Sep-21 04:00S 33°44' E 017°55'0 0.8
2017-Sep-21 03:30S 33°44' E 017°55'0 0.8
2017-Sep-21 03:00S 33°44' E 017°54'0 0.6
2017-Sep-21 02:30S 33°45' E 017°54'0 0.5
2017-Sep-21 02:00S 33°45' E 017°54'0 0.5
2017-Sep-21 01:30S 33°45' E 017°54'0 0.6
2017-Sep-21 01:00S 33°45' E 017°54'0 0.5
2017-Sep-21 00:30S 33°46' E 017°54'0 0.6
2017-Sep-21 00:00S 33°46' E 017°54'0 0.5
2017-Sep-20 23:30S 33°46' E 017°54'0 0.5
2017-Sep-20 23:00S 33°46' E 017°54'0 0.5
2017-Sep-20 22:30S 33°47' E 017°54'0 0.5
2017-Sep-20 21:52S 33°47' E 017°54'1 0.7
2017-Sep-20 21:03S 33°47' E 017°55'0 0.8
2017-Sep-20 20:47S 33°48' E 017°55'0 0.8
2017-Sep-20 20:30S 33°48' E 017°55'0 0.9
2017-Sep-20 20:00S 33°48' E 017°55'1 1.1
2017-Sep-20 18:57S 33°49' E 017°56'1 1.2
2017-Sep-20 18:29S 33°50' E 017°56'1 1.3
2017-Sep-20 17:33S 33°51' E 017°56'0 1.3
2017-Sep-20 17:30S 33°51' E 017°56'1 1.4
2017-Sep-20 16:53S 33°52' E 017°57'5 1.5
2017-Sep-20 13:18S 33°57' E 017°57'1 1.3
2017-Sep-20 12:39S 33°58' E 017°57'1 1.4
2017-Sep-20 12:15S 33°59' E 017°58'1 1.3
2017-Sep-20 11:50S 33°59' E 017°58'1 1.4
2017-Sep-20 11:14S 33°60' E 017°58'2 1.5
2017-Sep-20 10:08S 34°01' E 017°59'16 1.8
2017-Sep-20 01:16S 33°49' E 018°11'0 1.0
2017-Sep-20 01:00S 33°49' E 018°11'1 1.1
2017-Sep-20 00:30S 33°49' E 018°11'1 1.1
2017-Sep-19 23:59S 33°49' E 018°10'0 0.9
2017-Sep-19 23:30S 33°49' E 018°09'0 1.0
2017-Sep-19 23:00S 33°50' E 018°09'1 1.0
2017-Sep-19 22:24S 33°50' E 018°09'0 1.0
2017-Sep-19 21:59S 33°51' E 018°08'1 1.0
2017-Sep-19 20:55S 33°52' E 018°08'8 1.2
2017-Sep-19 14:29S 33°46' E 018°03'5 1.9
2017-Sep-19 11:52S 33°50' E 018°05'3 0.8
2017-Sep-19 08:52S 33°51' E 018°08'514.0
2017-Sep-19 08:30S 33°51' E 018°14'714.0
2017-Sep-19 08:00S 33°51' E 018°23'3 7.1
2017-Sep-19 07:30S 33°49' E 018°26'0 0.2
2017-Sep-19 06:59S 33°49' E 018°26'0 0.4
2017-Sep-19 06:23S 33°50' E 018°26'0 0.1
2017-Sep-19 05:59S 33°50' E 018°26'0 0.2
2017-Sep-19 05:28S 33°50' E 018°26'0 0.0
2017-Sep-19 04:55S 33°50' E 018°26'0 0.0
2017-Sep-19 04:29S 33°50' E 018°26'0 0.1
2017-Sep-19 03:59S 33°50' E 018°26'0 0.0
2017-Sep-19 03:30S 33°50' E 018°26'0 0.1
2017-Sep-19 03:00S 33°50' E 018°26'0 0.0
2017-Sep-19 02:28S 33°50' E 018°26'0 0.1
2017-Sep-19 01:52S 33°50' E 018°26'0 0.0
2017-Sep-19 01:28S 33°50' E 018°26'0 0.1
2017-Sep-19 01:00S 33°50' E 018°26'0 0.1
2017-Sep-19 00:26S 33°50' E 018°26'0 0.0
2017-Sep-18 23:58S 33°50' E 018°26'0 0.1
2017-Sep-18 23:25S 33°50' E 018°26'0 0.0
2017-Sep-18 23:00S 33°50' E 018°26'0 0.0
2017-Sep-18 22:30S 33°50' E 018°26'0 0.1
2017-Sep-18 22:00S 33°50' E 018°26'0 0.1
2017-Sep-18 21:25S 33°50' E 018°26'0 0.0
2017-Sep-18 20:58S 33°50' E 018°26'0 0.0
2017-Sep-18 20:27S 33°50' E 018°26'0 0.0
2017-Sep-18 20:00S 33°50' E 018°26'0 0.0
2017-Sep-18 19:28S 33°50' E 018°26'0 0.0
2017-Sep-18 18:58S 33°50' E 018°26'0 0.0
2017-Sep-18 18:30S 33°50' E 018°26'0 0.1
2017-Sep-18 18:00S 33°50' E 018°26'0 0.1
2017-Sep-18 17:30S 33°50' E 018°26'0 0.0
2017-Sep-18 16:59S 33°50' E 018°26'0 0.0
2017-Sep-18 16:23S 33°50' E 018°26'0 0.2
2017-Sep-18 15:59S 33°50' E 018°26'0 0.0
2017-Sep-18 15:06S 33°50' E 018°26'0 0.0
2017-Sep-18 14:19S 33°50' E 018°26'0 0.0
2017-Sep-18 13:55S 33°50' E 018°26'0 0.0
2017-Sep-18 13:24S 33°50' E 018°26'0 0.0
2017-Sep-18 13:00S 33°50' E 018°26'0 0.0
2017-Sep-18 12:30S 33°50' E 018°26'0 0.0
2017-Sep-18 11:56S 33°50' E 018°26'0 0.0
2017-Sep-18 11:22S 33°50' E 018°26'0 0.0
2017-Sep-18 11:00S 33°50' E 018°26'0 0.0
2017-Sep-18 10:20S 33°50' E 018°26'0 0.0
2017-Sep-18 09:49S 33°50' E 018°26'0 0.0
2017-Sep-18 09:04S 33°50' E 018°26'0 0.0
2017-Sep-18 08:58S 33°50' E 018°26'0 0.0
2017-Sep-18 08:29S 33°50' E 018°26'0 0.0
2017-Sep-18 07:54S 33°50' E 018°26'0 0.0
2017-Sep-18 06:34S 33°50' E 018°26'0 0.0
2017-Sep-18 06:21S 33°50' E 018°26'0 0.0
2017-Sep-18 05:56S 33°50' E 018°26'0 0.0
2017-Sep-18 05:23S 33°50' E 018°26'0 0.1
2017-Sep-18 04:59S 33°50' E 018°26'0 0.0
2017-Sep-18 04:26S 33°50' E 018°26'0 0.1
2017-Sep-18 03:56S 33°50' E 018°26'0 0.0
2017-Sep-18 03:26S 33°50' E 018°26'2 4.2
2017-Sep-18 03:00S 33°52' E 018°26'510.6
2017-Sep-18 02:30S 33°54' E 018°20'66514.8
2017-Sep-16 05:40S 30°27' E 030°47'316.1
2017-Sep-16 05:28S 30°24' E 030°48'715.6
2017-Sep-16 05:00S 30°18' E 030°53'714.9
2017-Sep-16 04:30S 30°11' E 030°57'714.8
2017-Sep-16 04:00S 30°05' E 031°01'815.9
2017-Sep-16 03:30S 29°58' E 031°05'714.4
2017-Sep-16 03:00S 29°50' E 031°06'4 7.1
2017-Sep-16 02:30S 29°53' E 031°03'0 0.6
2017-Sep-16 01:59S 29°52' E 031°02'0 0.0
2017-Sep-16 01:23S 29°52' E 031°02'0 0.0
2017-Sep-16 00:58S 29°52' E 031°02'0 0.0
2017-Sep-16 00:28S 29°52' E 031°02'0 0.0
2017-Sep-16 00:00S 29°52' E 031°02'0 0.0
2017-Sep-15 23:30S 29°52' E 031°02'0 0.0
2017-Sep-15 22:58S 29°52' E 031°02'0 0.0
2017-Sep-15 22:27S 29°52' E 031°02'0 0.0
2017-Sep-15 22:00S 29°52' E 031°02'0 0.0
2017-Sep-15 21:30S 29°52' E 031°02'0 0.0
2017-Sep-15 21:00S 29°52' E 031°02'0 0.0
2017-Sep-15 20:30S 29°52' E 031°02'0 0.0
2017-Sep-15 20:00S 29°52' E 031°02'0 0.0
2017-Sep-15 19:30S 29°52' E 031°02'0 0.0
2017-Sep-15 18:58S 29°52' E 031°02'0 0.0
2017-Sep-15 18:28S 29°52' E 031°02'0 0.0
2017-Sep-15 18:00S 29°52' E 031°02'0 0.0
2017-Sep-15 17:30S 29°52' E 031°02'0 0.0
2017-Sep-15 16:58S 29°52' E 031°02'0 0.0
2017-Sep-15 16:29S 29°52' E 031°02'0 0.0
2017-Sep-15 15:59S 29°52' E 031°02'0 0.0
2017-Sep-15 15:29S 29°52' E 031°02'0 0.0
2017-Sep-15 14:59S 29°52' E 031°02'0 0.0
2017-Sep-15 14:29S 29°52' E 031°02'0 0.0
2017-Sep-15 13:59S 29°52' E 031°02'0 0.0
2017-Sep-15 13:24S 29°52' E 031°02'0 0.0
2017-Sep-15 13:00S 29°52' E 031°02'0 0.0
2017-Sep-15 12:30S 29°52' E 031°02'0 0.0
2017-Sep-15 12:00S 29°52' E 031°02'0 0.0
2017-Sep-15 11:30S 29°52' E 031°02'0 0.0
2017-Sep-15 10:59S 29°52' E 031°02'0 0.0
2017-Sep-15 10:30S 29°52' E 031°02'0 0.0
2017-Sep-15 10:00S 29°52' E 031°02'0 0.0
2017-Sep-15 09:28S 29°52' E 031°02'0 0.0
2017-Sep-15 08:58S 29°52' E 031°02'0 0.0
2017-Sep-15 08:30S 29°52' E 031°02'0 0.0
2017-Sep-15 08:00S 29°52' E 031°02'0 0.0
2017-Sep-15 07:29S 29°52' E 031°02'0 0.0
2017-Sep-15 06:59S 29°52' E 031°02'0 0.0
2017-Sep-15 06:29S 29°52' E 031°02'0 0.0
2017-Sep-15 05:56S 29°52' E 031°02'0 0.0
2017-Sep-15 05:29S 29°52' E 031°02'0 0.0
2017-Sep-15 04:59S 29°52' E 031°02'0 0.0
2017-Sep-15 04:29S 29°52' E 031°02'0 0.0
2017-Sep-15 03:59S 29°52' E 031°02'0 0.0
2017-Sep-15 03:28S 29°52' E 031°02'0 0.0
2017-Sep-15 02:59S 29°52' E 031°02'0 0.0
2017-Sep-15 02:30S 29°52' E 031°02'0 0.0
2017-Sep-15 02:00S 29°52' E 031°02'0 0.0
2017-Sep-15 01:24S 29°52' E 031°02'0 0.0
2017-Sep-15 01:00S 29°52' E 031°02'0 0.0
2017-Sep-15 00:30S 29°52' E 031°02'0 0.0
2017-Sep-14 23:54S 29°52' E 031°02'0 0.0
2017-Sep-14 23:30S 29°52' E 031°02'0 0.0
2017-Sep-14 22:59S 29°52' E 031°02'0 0.0
2017-Sep-14 22:29S 29°52' E 031°02'0 0.0
2017-Sep-14 21:59S 29°52' E 031°02'0 0.0
2017-Sep-14 21:29S 29°52' E 031°02'0 0.0
2017-Sep-14 20:57S 29°52' E 031°02'0 0.0
2017-Sep-14 20:30S 29°52' E 031°02'0 0.0
2017-Sep-14 19:58S 29°52' E 031°02'0 0.0
2017-Sep-14 19:29S 29°52' E 031°02'0 0.0
2017-Sep-14 18:59S 29°52' E 031°02'0 0.0
2017-Sep-14 18:30S 29°52' E 031°02'0 0.0
2017-Sep-14 18:00S 29°52' E 031°02'0 0.0
2017-Sep-14 17:24S 29°52' E 031°02'0 0.0
2017-Sep-14 16:57S 29°52' E 031°02'0 0.0
2017-Sep-14 16:30S 29°52' E 031°02'0 0.0
2017-Sep-14 15:57S 29°52' E 031°02'0 0.0
2017-Sep-14 15:29S 29°52' E 031°02'0 0.0
2017-Sep-14 14:59S 29°52' E 031°02'0 0.0
2017-Sep-14 14:29S 29°52' E 031°02'0 0.0
2017-Sep-14 13:58S 29°52' E 031°02'0 0.0
2017-Sep-14 13:29S 29°52' E 031°02'0 0.0
2017-Sep-14 12:59S 29°52' E 031°02'0 0.0
2017-Sep-14 12:29S 29°52' E 031°02'0 0.0
2017-Sep-14 11:57S 29°52' E 031°02'0 0.0
2017-Sep-14 11:30S 29°52' E 031°02'0 0.0
2017-Sep-14 10:59S 29°52' E 031°02'0 0.0
2017-Sep-14 10:23S 29°52' E 031°02'0 0.0
2017-Sep-14 09:59S 29°52' E 031°02'0 0.0
2017-Sep-14 09:30S 29°52' E 031°02'0 0.0
2017-Sep-14 09:00S 29°52' E 031°02'0 0.0
2017-Sep-14 08:30S 29°52' E 031°02'0 0.0
2017-Sep-14 08:00S 29°52' E 031°02'0 0.0
2017-Sep-14 07:30S 29°52' E 031°02'0 0.0
2017-Sep-14 07:00S 29°52' E 031°02'0 0.0
2017-Sep-14 06:29S 29°52' E 031°02'0 0.0
2017-Sep-14 05:55S 29°52' E 031°02'0 0.0
2017-Sep-14 05:26S 29°52' E 031°02'0 0.0
2017-Sep-14 05:00S 29°52' E 031°02'0 0.0
2017-Sep-14 04:30S 29°52' E 031°02'0 0.0
2017-Sep-14 04:00S 29°52' E 031°02'0 0.0
2017-Sep-14 03:24S 29°52' E 031°02'0 0.0
2017-Sep-14 02:58S 29°52' E 031°02'0 0.0
2017-Sep-14 02:28S 29°52' E 031°02'0 0.0
2017-Sep-14 02:00S 29°52' E 031°02'0 0.0
2017-Sep-14 01:24S 29°52' E 031°02'0 0.0
2017-Sep-14 01:00S 29°52' E 031°02'0 0.0
2017-Sep-14 00:30S 29°52' E 031°02'0 0.0
2017-Sep-14 00:00S 29°52' E 031°02'0 0.0
2017-Sep-13 23:30S 29°52' E 031°02'0 0.0
2017-Sep-13 23:00S 29°52' E 031°02'0 0.0
2017-Sep-13 22:30S 29°52' E 031°02'0 0.0
2017-Sep-13 22:00S 29°52' E 031°02'0 0.0
2017-Sep-13 21:30S 29°52' E 031°02'0 0.0
2017-Sep-13 20:59S 29°52' E 031°02'0 0.0
2017-Sep-13 20:28S 29°52' E 031°02'0 0.0
2017-Sep-13 20:00S 29°52' E 031°02'0 0.0
2017-Sep-13 19:30S 29°52' E 031°02'0 0.0
2017-Sep-13 18:46S 29°52' E 031°02'0 0.0
2017-Sep-13 18:29S 29°52' E 031°02'0 0.0
2017-Sep-13 17:59S 29°52' E 031°02'0 0.0
2017-Sep-13 17:29S 29°52' E 031°02'0 0.0
2017-Sep-13 16:59S 29°52' E 031°02'0 0.0
2017-Sep-13 16:29S 29°52' E 031°02'0 0.0
2017-Sep-13 15:56S 29°52' E 031°02'0 0.0
2017-Sep-13 15:27S 29°52' E 031°02'0 0.0
2017-Sep-13 14:59S 29°52' E 031°02'0 0.0
2017-Sep-13 14:29S 29°52' E 031°02'0 0.0
2017-Sep-13 13:59S 29°52' E 031°02'0 0.0
2017-Sep-13 13:29S 29°52' E 031°02'0 0.0
2017-Sep-13 12:59S 29°52' E 031°02'0 0.0
2017-Sep-13 12:30S 29°52' E 031°02'0 0.0
2017-Sep-13 12:00S 29°52' E 031°02'0 0.0
2017-Sep-13 11:28S 29°52' E 031°02'0 0.0
2017-Sep-13 10:59S 29°52' E 031°02'0 0.0
2017-Sep-13 10:29S 29°52' E 031°02'0 0.0
2017-Sep-13 09:59S 29°52' E 031°02'0 0.0
2017-Sep-13 09:30S 29°52' E 031°02'0 0.0
2017-Sep-13 08:59S 29°52' E 031°02'0 0.0
2017-Sep-13 08:29S 29°52' E 031°02'0 0.0
2017-Sep-13 07:58S 29°52' E 031°02'0 0.0
2017-Sep-13 07:28S 29°52' E 031°02'0 0.0
2017-Sep-13 06:58S 29°52' E 031°02'0 0.0
2017-Sep-13 06:28S 29°52' E 031°02'0 0.0
2017-Sep-13 06:00S 29°52' E 031°02'0 0.0
2017-Sep-13 05:28S 29°52' E 031°02'0 0.0
2017-Sep-13 04:59S 29°52' E 031°02'0 0.0
2017-Sep-13 04:25S 29°52' E 031°02'0 0.0
2017-Sep-13 03:56S 29°52' E 031°02'0 0.0
2017-Sep-13 03:29S 29°52' E 031°02'0 0.0
2017-Sep-13 02:59S 29°52' E 031°02'0 0.0
2017-Sep-13 02:29S 29°52' E 031°02'0 0.0
2017-Sep-13 01:56S 29°52' E 031°02'0 0.0
2017-Sep-13 01:20S 29°52' E 031°02'0 0.0
2017-Sep-13 00:58S 29°52' E 031°02'0 0.0
2017-Sep-13 00:27S 29°52' E 031°02'0 0.0
2017-Sep-12 23:59S 29°52' E 031°02'0 0.0
2017-Sep-12 23:29S 29°52' E 031°02'0 0.0
2017-Sep-12 22:59S 29°52' E 031°02'0 0.0
2017-Sep-12 22:28S 29°52' E 031°02'0 0.0
2017-Sep-12 21:53S 29°52' E 031°02'0 0.0
2017-Sep-12 21:30S 29°52' E 031°02'0 0.0
2017-Sep-12 20:59S 29°52' E 031°02'0 0.0
2017-Sep-12 20:29S 29°52' E 031°02'0 0.0
2017-Sep-12 19:59S 29°52' E 031°02'0 0.0
2017-Sep-12 19:29S 29°52' E 031°02'0 0.0
2017-Sep-12 19:00S 29°52' E 031°02'0 0.0
2017-Sep-12 18:30S 29°52' E 031°02'0 0.1
2017-Sep-12 18:00S 29°52' E 031°02'3 5.4
2017-Sep-12 17:30S 29°51' E 031°05'3 6.3
2017-Sep-12 17:00S 29°48' E 031°07'510.1
2017-Sep-12 16:30S 29°44' E 031°09'4 7.4
2017-Sep-12 16:00S 29°40' E 031°09'0 0.0
2017-Sep-12 15:29S 29°40' E 031°09'0 0.1
2017-Sep-12 14:59S 29°40' E 031°09'0 0.1
2017-Sep-12 14:29S 29°40' E 031°09'0 0.1
2017-Sep-12 13:58S 29°40' E 031°09'0 0.0
2017-Sep-12 13:28S 29°40' E 031°09'0 0.1
2017-Sep-12 12:59S 29°40' E 031°09'0 0.0
2017-Sep-12 12:29S 29°40' E 031°09'0 0.1
2017-Sep-12 12:00S 29°40' E 031°09'0 0.1
2017-Sep-12 11:30S 29°40' E 031°09'0 0.1
2017-Sep-12 11:00S 29°40' E 031°09'0 0.1
2017-Sep-12 10:30S 29°40' E 031°09'0 0.1
2017-Sep-12 09:56S 29°40' E 031°10'0 0.1
2017-Sep-12 09:29S 29°40' E 031°10'0 0.0
2017-Sep-12 08:59S 29°40' E 031°10'0 0.0
2017-Sep-12 08:26S 29°40' E 031°10'0 0.0
2017-Sep-12 07:58S 29°40' E 031°10'0 0.0
2017-Sep-12 07:30S 29°40' E 031°10'0 0.0
2017-Sep-12 06:59S 29°40' E 031°10'0 0.0
2017-Sep-12 06:27S 29°40' E 031°10'0 0.0
2017-Sep-12 06:00S 29°40' E 031°10'0 0.0
2017-Sep-12 05:30S 29°40' E 031°10'0 0.0
2017-Sep-12 04:59S 29°40' E 031°10'0 0.0
2017-Sep-12 04:28S 29°40' E 031°10'0 0.0
2017-Sep-12 03:59S 29°40' E 031°10'0 0.0
2017-Sep-12 03:29S 29°40' E 031°10'0 0.0
2017-Sep-12 02:59S 29°40' E 031°10'0 0.0
2017-Sep-12 02:29S 29°40' E 031°10'  
Track history (hours):
 
Tides and Currents Weather Stations Pressure Air Temp Water Temp Dewpoint Dewpoint Depression Visibility Wind Speed Wind Dir Waves Ship Positions

Zim Mumbai

Last reported at 2017-Sep-22 02:00 UTC. Time now 2017-Sep-22 02:57 UTC.
Position S 33°50' E 018°25'.

Length 195.7 m; beam 32.3 m; draft 11.5 m.

Type: Cargo ship. MMSI: 212160000.

Date/timePositionNaut miles runAvg speedWind from/ knotsBaromVisibWave heightAir tempDewpointWater temp
2017-Sep-22 02:00S 33°50' E 018°25'0 0.3
2017-Sep-22 01:30S 33°50' E 018°25'0 0.0
2017-Sep-22 00:42S 33°50' E 018°25'0 0.0
2017-Sep-22 00:27S 33°50' E 018°25'0 0.1
2017-Sep-22 00:00S 33°50' E 018°25'0 0.0
2017-Sep-21 23:27S 33°50' E 018°25'0 0.0
2017-Sep-21 22:55S 33°50' E 018°25'0 0.0
2017-Sep-21 22:28S 33°50' E 018°25'0 0.0
2017-Sep-21 21:50S 33°50' E 018°25'0 0.0
2017-Sep-21 21:29S 33°50' E 018°25'0 0.0
2017-Sep-21 20:54S 33°50' E 018°25'0 0.0
2017-Sep-21 19:59S 33°50' E 018°25'0 0.0
2017-Sep-21 19:28S 33°50' E 018°25'0 0.1
2017-Sep-21 18:55S 33°50' E 018°25'0 0.0
2017-Sep-21 18:25S 33°50' E 018°25'0 0.1
2017-Sep-21 17:55S 33°50' E 018°25'0 0.0
2017-Sep-21 17:27S 33°50' E 018°25'0 0.0
2017-Sep-21 16:59S 33°50' E 018°25'0 0.0
2017-Sep-21 16:29S 33°50' E 018°25'0 0.0
2017-Sep-21 16:00S 33°50' E 018°25'0 0.0
2017-Sep-21 15:25S 33°50' E 018°25'0 0.1
2017-Sep-21 14:58S 33°50' E 018°25'0 0.0
2017-Sep-21 14:28S 33°50' E 018°25'0 0.0
2017-Sep-21 13:52S 33°50' E 018°25'0 0.0
2017-Sep-21 13:27S 33°50' E 018°25'0 0.0
2017-Sep-21 13:00S 33°50' E 018°25'0 0.0
2017-Sep-21 12:30S 33°50' E 018°25'0 0.1
2017-Sep-21 11:58S 33°50' E 018°25'0 0.0
2017-Sep-21 11:17S 33°50' E 018°25'0 0.0
2017-Sep-21 10:49S 33°50' E 018°25'0 0.1
2017-Sep-21 10:28S 33°50' E 018°25'0 0.1
2017-Sep-21 09:58S 33°50' E 018°25'0 0.1
2017-Sep-21 09:29S 33°50' E 018°25'0 0.1
2017-Sep-21 09:00S 33°50' E 018°25'0 0.2
2017-Sep-21 08:30S 33°50' E 018°25'2 4.6
2017-Sep-21 08:00S 33°52' E 018°24'613.0
2017-Sep-21 07:30S 33°52' E 018°17'1014.4
2017-Sep-21 06:50S 33°47' E 018°06'514.6
2017-Sep-21 06:30S 33°45' E 018°01'4 7.4
2017-Sep-21 05:54S 33°43' E 017°57'1 1.0
2017-Sep-21 05:05S 33°43' E 017°56'0 1.0
2017-Sep-21 04:55S 33°43' E 017°56'0 0.8
2017-Sep-21 04:26S 33°43' E 017°55'0 0.7
2017-Sep-21 04:00S 33°44' E 017°55'0 0.8
2017-Sep-21 03:30S 33°44' E 017°55'0 0.8
2017-Sep-21 03:00S 33°44' E 017°54'0 0.6
2017-Sep-21 02:30S 33°45' E 017°54'0 0.5
2017-Sep-21 02:00S 33°45' E 017°54'0 0.5
2017-Sep-21 01:30S 33°45' E 017°54'0 0.6
2017-Sep-21 01:00S 33°45' E 017°54'0 0.5
2017-Sep-21 00:30S 33°46' E 017°54'0 0.6
2017-Sep-21 00:00S 33°46' E 017°54'0 0.5
2017-Sep-20 23:30S 33°46' E 017°54'0 0.5
2017-Sep-20 23:00S 33°46' E 017°54'0 0.5
2017-Sep-20 22:30S 33°47' E 017°54'0 0.5
2017-Sep-20 21:52S 33°47' E 017°54'1 0.7
2017-Sep-20 21:03S 33°47' E 017°55'0 0.8
2017-Sep-20 20:47S 33°48' E 017°55'0 0.8
2017-Sep-20 20:30S 33°48' E 017°55'0 0.9
2017-Sep-20 20:00S 33°48' E 017°55'1 1.1
2017-Sep-20 18:57S 33°49' E 017°56'1 1.2
2017-Sep-20 18:29S 33°50' E 017°56'1 1.3
2017-Sep-20 17:33S 33°51' E 017°56'0 1.3
2017-Sep-20 17:30S 33°51' E 017°56'1 1.4
2017-Sep-20 16:53S 33°52' E 017°57'5 1.5
2017-Sep-20 13:18S 33°57' E 017°57'1 1.3
2017-Sep-20 12:39S 33°58' E 017°57'1 1.4
2017-Sep-20 12:15S 33°59' E 017°58'1 1.3
2017-Sep-20 11:50S 33°59' E 017°58'1 1.4
2017-Sep-20 11:14S 33°60' E 017°58'2 1.5
2017-Sep-20 10:08S 34°01' E 017°59'16 1.8
2017-Sep-20 01:16S 33°49' E 018°11'0 1.0
2017-Sep-20 01:00S 33°49' E 018°11'1 1.1
2017-Sep-20 00:30S 33°49' E 018°11'1 1.1
2017-Sep-19 23:59S 33°49' E 018°10'0 0.9
2017-Sep-19 23:30S 33°49' E 018°09'0 1.0
2017-Sep-19 23:00S 33°50' E 018°09'1 1.0
2017-Sep-19 22:24S 33°50' E 018°09'0 1.0
2017-Sep-19 21:59S 33°51' E 018°08'1 1.0
2017-Sep-19 20:55S 33°52' E 018°08'8 1.2
2017-Sep-19 14:29S 33°46' E 018°03'5 1.9
2017-Sep-19 11:52S 33°50' E 018°05'3 0.8
2017-Sep-19 08:52S 33°51' E 018°08'514.0
2017-Sep-19 08:30S 33°51' E 018°14'714.0
2017-Sep-19 08:00S 33°51' E 018°23'3 7.1
2017-Sep-19 07:30S 33°49' E 018°26'0 0.2
2017-Sep-19 06:59S 33°49' E 018°26'0 0.4
2017-Sep-19 06:23S 33°50' E 018°26'0 0.1
2017-Sep-19 05:59S 33°50' E 018°26'0 0.2
2017-Sep-19 05:28S 33°50' E 018°26'0 0.0
2017-Sep-19 04:55S 33°50' E 018°26'0 0.0
2017-Sep-19 04:29S 33°50' E 018°26'0 0.1
2017-Sep-19 03:59S 33°50' E 018°26'0 0.0
2017-Sep-19 03:30S 33°50' E 018°26'0 0.1
2017-Sep-19 03:00S 33°50' E 018°26'0 0.0
2017-Sep-19 02:28S 33°50' E 018°26'0 0.1
2017-Sep-19 01:52S 33°50' E 018°26'0 0.0
2017-Sep-19 01:28S 33°50' E 018°26'0 0.1
2017-Sep-19 01:00S 33°50' E 018°26'0 0.1
2017-Sep-19 00:26S 33°50' E 018°26'0 0.0
2017-Sep-18 23:58S 33°50' E 018°26'0 0.1
2017-Sep-18 23:25S 33°50' E 018°26'0 0.0
2017-Sep-18 23:00S 33°50' E 018°26'0 0.0
2017-Sep-18 22:30S 33°50' E 018°26'0 0.1
2017-Sep-18 22:00S 33°50' E 018°26'0 0.1
2017-Sep-18 21:25S 33°50' E 018°26'0 0.0
2017-Sep-18 20:58S 33°50' E 018°26'0 0.0
2017-Sep-18 20:27S 33°50' E 018°26'0 0.0
2017-Sep-18 20:00S 33°50' E 018°26'0 0.0
2017-Sep-18 19:28S 33°50' E 018°26'0 0.0
2017-Sep-18 18:58S 33°50' E 018°26'0 0.0
2017-Sep-18 18:30S 33°50' E 018°26'0 0.1
2017-Sep-18 18:00S 33°50' E 018°26'0 0.1
2017-Sep-18 17:30S 33°50' E 018°26'0 0.0
2017-Sep-18 16:59S 33°50' E 018°26'0 0.0
2017-Sep-18 16:23S 33°50' E 018°26'0 0.2
2017-Sep-18 15:59S 33°50' E 018°26'0 0.0
2017-Sep-18 15:06S 33°50' E 018°26'0 0.0
2017-Sep-18 14:19S 33°50' E 018°26'0 0.0
2017-Sep-18 13:55S 33°50' E 018°26'0 0.0
2017-Sep-18 13:24S 33°50' E 018°26'0 0.0
2017-Sep-18 13:00S 33°50' E 018°26'0 0.0
2017-Sep-18 12:30S 33°50' E 018°26'0 0.0
2017-Sep-18 11:56S 33°50' E 018°26'0 0.0
2017-Sep-18 11:22S 33°50' E 018°26'0 0.0
2017-Sep-18 11:00S 33°50' E 018°26'0 0.0
2017-Sep-18 10:20S 33°50' E 018°26'0 0.0
2017-Sep-18 09:49S 33°50' E 018°26'0 0.0
2017-Sep-18 09:04S 33°50' E 018°26'0 0.0
2017-Sep-18 08:58S 33°50' E 018°26'0 0.0
2017-Sep-18 08:29S 33°50' E 018°26'0 0.0
2017-Sep-18 07:54S 33°50' E 018°26'0 0.0
2017-Sep-18 06:34S 33°50' E 018°26'0 0.0
2017-Sep-18 06:21S 33°50' E 018°26'0 0.0
2017-Sep-18 05:56S 33°50' E 018°26'0 0.0
2017-Sep-18 05:23S 33°50' E 018°26'0 0.1
2017-Sep-18 04:59S 33°50' E 018°26'0 0.0
2017-Sep-18 04:26S 33°50' E 018°26'0 0.1
2017-Sep-18 03:56S 33°50' E 018°26'0 0.0
2017-Sep-18 03:26S 33°50' E 018°26'2 4.2
2017-Sep-18 03:00S 33°52' E 018°26'510.6
2017-Sep-18 02:30S 33°54' E 018°20'66514.8
2017-Sep-16 05:40S 30°27' E 030°47'316.1
2017-Sep-16 05:28S 30°24' E 030°48'715.6
2017-Sep-16 05:00S 30°18' E 030°53'714.9
2017-Sep-16 04:30S 30°11' E 030°57'714.8
2017-Sep-16 04:00S 30°05' E 031°01'815.9
2017-Sep-16 03:30S 29°58' E 031°05'714.4
2017-Sep-16 03:00S 29°50' E 031°06'4 7.1
2017-Sep-16 02:30S 29°53' E 031°03'0 0.6
2017-Sep-16 01:59S 29°52' E 031°02'0 0.0
2017-Sep-16 01:23S 29°52' E 031°02'0 0.0
2017-Sep-16 00:58S 29°52' E 031°02'0 0.0
2017-Sep-16 00:28S 29°52' E 031°02'0 0.0
2017-Sep-16 00:00S 29°52' E 031°02'0 0.0
2017-Sep-15 23:30S 29°52' E 031°02'0 0.0
2017-Sep-15 22:58S 29°52' E 031°02'0 0.0
2017-Sep-15 22:27S 29°52' E 031°02'0 0.0
2017-Sep-15 22:00S 29°52' E 031°02'0 0.0
2017-Sep-15 21:30S 29°52' E 031°02'0 0.0
2017-Sep-15 21:00S 29°52' E 031°02'0 0.0
2017-Sep-15 20:30S 29°52' E 031°02'0 0.0
2017-Sep-15 20:00S 29°52' E 031°02'0 0.0
2017-Sep-15 19:30S 29°52' E 031°02'0 0.0
2017-Sep-15 18:58S 29°52' E 031°02'0 0.0
2017-Sep-15 18:28S 29°52' E 031°02'0 0.0
2017-Sep-15 18:00S 29°52' E 031°02'0 0.0
2017-Sep-15 17:30S 29°52' E 031°02'0 0.0
2017-Sep-15 16:58S 29°52' E 031°02'0 0.0
2017-Sep-15 16:29S 29°52' E 031°02'0 0.0
2017-Sep-15 15:59S 29°52' E 031°02'0 0.0
2017-Sep-15 15:29S 29°52' E 031°02'0 0.0
2017-Sep-15 14:59S 29°52' E 031°02'0 0.0
2017-Sep-15 14:29S 29°52' E 031°02'0 0.0
2017-Sep-15 13:59S 29°52' E 031°02'0 0.0
2017-Sep-15 13:24S 29°52' E 031°02'0 0.0
2017-Sep-15 13:00S 29°52' E 031°02'0 0.0
2017-Sep-15 12:30S 29°52' E 031°02'0 0.0
2017-Sep-15 12:00S 29°52' E 031°02'0 0.0
2017-Sep-15 11:30S 29°52' E 031°02'0 0.0
2017-Sep-15 10:59S 29°52' E 031°02'0 0.0
2017-Sep-15 10:30S 29°52' E 031°02'0 0.0
2017-Sep-15 10:00S 29°52' E 031°02'0 0.0
2017-Sep-15 09:28S 29°52' E 031°02'0 0.0
2017-Sep-15 08:58S 29°52' E 031°02'0 0.0
2017-Sep-15 08:30S 29°52' E 031°02'0 0.0
2017-Sep-15 08:00S 29°52' E 031°02'0 0.0
2017-Sep-15 07:29S 29°52' E 031°02'0 0.0
2017-Sep-15 06:59S 29°52' E 031°02'0 0.0
2017-Sep-15 06:29S 29°52' E 031°02'0 0.0
2017-Sep-15 05:56S 29°52' E 031°02'0 0.0
2017-Sep-15 05:29S 29°52' E 031°02'0 0.0
2017-Sep-15 04:59S 29°52' E 031°02'0 0.0
2017-Sep-15 04:29S 29°52' E 031°02'0 0.0
2017-Sep-15 03:59S 29°52' E 031°02'0 0.0
2017-Sep-15 03:28S 29°52' E 031°02'0 0.0
2017-Sep-15 02:59S 29°52' E 031°02'0 0.0
2017-Sep-15 02:30S 29°52' E 031°02'0 0.0
2017-Sep-15 02:00S 29°52' E 031°02'0 0.0
2017-Sep-15 01:24S 29°52' E 031°02'0 0.0
2017-Sep-15 01:00S 29°52' E 031°02'0 0.0
2017-Sep-15 00:30S 29°52' E 031°02'0 0.0
2017-Sep-14 23:54S 29°52' E 031°02'0 0.0
2017-Sep-14 23:30S 29°52' E 031°02'0 0.0
2017-Sep-14 22:59S 29°52' E 031°02'0 0.0
2017-Sep-14 22:29S 29°52' E 031°02'0 0.0
2017-Sep-14 21:59S 29°52' E 031°02'0 0.0
2017-Sep-14 21:29S 29°52' E 031°02'0 0.0
2017-Sep-14 20:57S 29°52' E 031°02'0 0.0
2017-Sep-14 20:30S 29°52' E 031°02'0 0.0
2017-Sep-14 19:58S 29°52' E 031°02'0 0.0
2017-Sep-14 19:29S 29°52' E 031°02'0 0.0
2017-Sep-14 18:59S 29°52' E 031°02'0 0.0
2017-Sep-14 18:30S 29°52' E 031°02'0 0.0
2017-Sep-14 18:00S 29°52' E 031°02'0 0.0
2017-Sep-14 17:24S 29°52' E 031°02'0 0.0
2017-Sep-14 16:57S 29°52' E 031°02'0 0.0
2017-Sep-14 16:30S 29°52' E 031°02'0 0.0
2017-Sep-14 15:57S 29°52' E 031°02'0 0.0
2017-Sep-14 15:29S 29°52' E 031°02'0 0.0
2017-Sep-14 14:59S 29°52' E 031°02'0 0.0
2017-Sep-14 14:29S 29°52' E 031°02'0 0.0
2017-Sep-14 13:58S 29°52' E 031°02'0 0.0
2017-Sep-14 13:29S 29°52' E 031°02'0 0.0
2017-Sep-14 12:59S 29°52' E 031°02'0 0.0
2017-Sep-14 12:29S 29°52' E 031°02'0 0.0
2017-Sep-14 11:57S 29°52' E 031°02'0 0.0
2017-Sep-14 11:30S 29°52' E 031°02'0 0.0
2017-Sep-14 10:59S 29°52' E 031°02'0 0.0
2017-Sep-14 10:23S 29°52' E 031°02'0 0.0
2017-Sep-14 09:59S 29°52' E 031°02'0 0.0
2017-Sep-14 09:30S 29°52' E 031°02'0 0.0
2017-Sep-14 09:00S 29°52' E 031°02'0 0.0
2017-Sep-14 08:30S 29°52' E 031°02'0 0.0
2017-Sep-14 08:00S 29°52' E 031°02'0 0.0
2017-Sep-14 07:30S 29°52' E 031°02'0 0.0
2017-Sep-14 07:00S 29°52' E 031°02'0 0.0
2017-Sep-14 06:29S 29°52' E 031°02'0 0.0
2017-Sep-14 05:55S 29°52' E 031°02'0 0.0
2017-Sep-14 05:26S 29°52' E 031°02'0 0.0
2017-Sep-14 05:00S 29°52' E 031°02'0 0.0
2017-Sep-14 04:30S 29°52' E 031°02'0 0.0
2017-Sep-14 04:00S 29°52' E 031°02'0 0.0
2017-Sep-14 03:24S 29°52' E 031°02'0 0.0
2017-Sep-14 02:58S 29°52' E 031°02'0 0.0
2017-Sep-14 02:28S 29°52' E 031°02'0 0.0
2017-Sep-14 02:00S 29°52' E 031°02'0 0.0
2017-Sep-14 01:24S 29°52' E 031°02'0 0.0
2017-Sep-14 01:00S 29°52' E 031°02'0 0.0
2017-Sep-14 00:30S 29°52' E 031°02'0 0.0
2017-Sep-14 00:00S 29°52' E 031°02'0 0.0
2017-Sep-13 23:30S 29°52' E 031°02'0 0.0
2017-Sep-13 23:00S 29°52' E 031°02'0 0.0
2017-Sep-13 22:30S 29°52' E 031°02'0 0.0
2017-Sep-13 22:00S 29°52' E 031°02'0 0.0
2017-Sep-13 21:30S 29°52' E 031°02'0 0.0
2017-Sep-13 20:59S 29°52' E 031°02'0 0.0
2017-Sep-13 20:28S 29°52' E 031°02'0 0.0
2017-Sep-13 20:00S 29°52' E 031°02'0 0.0
2017-Sep-13 19:30S 29°52' E 031°02'0 0.0
2017-Sep-13 18:46S 29°52' E 031°02'0 0.0
2017-Sep-13 18:29S 29°52' E 031°02'0 0.0
2017-Sep-13 17:59S 29°52' E 031°02'0 0.0
2017-Sep-13 17:29S 29°52' E 031°02'0 0.0
2017-Sep-13 16:59S 29°52' E 031°02'0 0.0
2017-Sep-13 16:29S 29°52' E 031°02'0 0.0
2017-Sep-13 15:56S 29°52' E 031°02'0 0.0
2017-Sep-13 15:27S 29°52' E 031°02'0 0.0
2017-Sep-13 14:59S 29°52' E 031°02'0 0.0
2017-Sep-13 14:29S 29°52' E 031°02'0 0.0
2017-Sep-13 13:59S 29°52' E 031°02'0 0.0
2017-Sep-13 13:29S 29°52' E 031°02'0 0.0
2017-Sep-13 12:59S 29°52' E 031°02'0 0.0
2017-Sep-13 12:30S 29°52' E 031°02'0 0.0
2017-Sep-13 12:00S 29°52' E 031°02'0 0.0
2017-Sep-13 11:28S 29°52' E 031°02'0 0.0
2017-Sep-13 10:59S 29°52' E 031°02'0 0.0
2017-Sep-13 10:29S 29°52' E 031°02'0 0.0
2017-Sep-13 09:59S 29°52' E 031°02'0 0.0
2017-Sep-13 09:30S 29°52' E 031°02'0 0.0
2017-Sep-13 08:59S 29°52' E 031°02'0 0.0
2017-Sep-13 08:29S 29°52' E 031°02'0 0.0
2017-Sep-13 07:58S 29°52' E 031°02'0 0.0
2017-Sep-13 07:28S 29°52' E 031°02'0 0.0
2017-Sep-13 06:58S 29°52' E 031°02'0 0.0
2017-Sep-13 06:28S 29°52' E 031°02'0 0.0
2017-Sep-13 06:00S 29°52' E 031°02'0 0.0
2017-Sep-13 05:28S 29°52' E 031°02'0 0.0
2017-Sep-13 04:59S 29°52' E 031°02'0 0.0
2017-Sep-13 04:25S 29°52' E 031°02'0 0.0
2017-Sep-13 03:56S 29°52' E 031°02'0 0.0
2017-Sep-13 03:29S 29°52' E 031°02'0 0.0
2017-Sep-13 02:59S 29°52' E 031°02'0 0.0
2017-Sep-13 02:29S 29°52' E 031°02'0 0.0
2017-Sep-13 01:56S 29°52' E 031°02'0 0.0
2017-Sep-13 01:20S 29°52' E 031°02'0 0.0
2017-Sep-13 00:58S 29°52' E 031°02'0 0.0
2017-Sep-13 00:27S 29°52' E 031°02'0 0.0
2017-Sep-12 23:59S 29°52' E 031°02'0 0.0
2017-Sep-12 23:29S 29°52' E 031°02'0 0.0
2017-Sep-12 22:59S 29°52' E 031°02'0 0.0
2017-Sep-12 22:28S 29°52' E 031°02'0 0.0
2017-Sep-12 21:53S 29°52' E 031°02'0 0.0
2017-Sep-12 21:30S 29°52' E 031°02'0 0.0
2017-Sep-12 20:59S 29°52' E 031°02'0 0.0
2017-Sep-12 20:29S 29°52' E 031°02'0 0.0
2017-Sep-12 19:59S 29°52' E 031°02'0 0.0
2017-Sep-12 19:29S 29°52' E 031°02'0 0.0
2017-Sep-12 19:00S 29°52' E 031°02'0 0.0
2017-Sep-12 18:30S 29°52' E 031°02'0 0.1
2017-Sep-12 18:00S 29°52' E 031°02'3 5.4
2017-Sep-12 17:30S 29°51' E 031°05'3 6.3
2017-Sep-12 17:00S 29°48' E 031°07'510.1
2017-Sep-12 16:30S 29°44' E 031°09'4 7.4
2017-Sep-12 16:00S 29°40' E 031°09'0 0.0
2017-Sep-12 15:29S 29°40' E 031°09'0 0.1
2017-Sep-12 14:59S 29°40' E 031°09'0 0.1
2017-Sep-12 14:29S 29°40' E 031°09'0 0.1
2017-Sep-12 13:58S 29°40' E 031°09'0 0.0
2017-Sep-12 13:28S 29°40' E 031°09'0 0.1
2017-Sep-12 12:59S 29°40' E 031°09'0 0.0
2017-Sep-12 12:29S 29°40' E 031°09'0 0.1
2017-Sep-12 12:00S 29°40' E 031°09'0 0.1
2017-Sep-12 11:30S 29°40' E 031°09'0 0.1
2017-Sep-12 11:00S 29°40' E 031°09'0 0.1
2017-Sep-12 10:30S 29°40' E 031°09'0 0.1
2017-Sep-12 09:56S 29°40' E 031°10'0 0.1
2017-Sep-12 09:29S 29°40' E 031°10'0 0.0
2017-Sep-12 08:59S 29°40' E 031°10'0 0.0
2017-Sep-12 08:26S 29°40' E 031°10'0 0.0
2017-Sep-12 07:58S 29°40' E 031°10'0 0.0
2017-Sep-12 07:30S 29°40' E 031°10'0 0.0
2017-Sep-12 06:59S 29°40' E 031°10'0 0.0
2017-Sep-12 06:27S 29°40' E 031°10'0 0.0
2017-Sep-12 06:00S 29°40' E 031°10'0 0.0
2017-Sep-12 05:30S 29°40' E 031°10'0 0.0
2017-Sep-12 04:59S 29°40' E 031°10'0 0.0
2017-Sep-12 04:28S 29°40' E 031°10'0 0.0
2017-Sep-12 03:59S 29°40' E 031°10'0 0.0
2017-Sep-12 03:29S 29°40' E 031°10'0 0.0
2017-Sep-12 02:59S 29°40' E 031°10'0 0.0
2017-Sep-12 02:29S 29°40' E 031°10'  

Dump ship's entire track history